Accueil
METAR-TAF:

METAR-TAF

Aéroports :

Tahiti, Polynésie française

Aéroport international de Tahiti Fa'a'ā

latitude: 17-33S, longitude: 149-37W, altitude: 2 m

Observation

Le bulletin a été fait il y a 34 minutes, à 06:30 UTC
Vent 3 kt de est/nord-est
Température 26°C
Humidité 79%
Pression 1014 hPa
Visibilité 10 km ou plus
Quelques nuages à une hauteur de 2000 ft

METAR: NTAA 270630Z 07003KT 9999 FEW020 26/22 Q1014 NOSIG

Heure: 21:04 (07:04 UTC)

Prévision

Le bulletin a été fait il y a 8 heures et 4 minutes, à 23:00 UTC
Prévision valable du 27 à 00 UTC au 28 à 06 UTC
Vent 12 kt de nord/nord-est
Visibilité 10 km ou plus
Quelques nuages à une hauteur de 2300 ft
Nuages épars à une hauteur de 5000 ft

TAF: NTAA 262300Z 2700/2806 03012KT 9999 FEW023 SCT050

Observations et prévisions météorologiques de plus de 4000 aéroports (messages METAR et TAF).

Les stations disponibles sont représentées par des disques jaunes et rouges sur la carte.

Passer la souris dessus pour voir le nom de la station.

Cliquer dessus pour voir les observations et prévisions météorologiques.

Pour changer de carte: cliquez sur les boutons verts avec une croix noire pour zoomer, sur le bouton vert avec un tiret pour effectuer un zoom arrière, ou sur les flèches vertes pour les cartes adjacentes.


METAR-TAF: